KCRG/CRG METAR and TAF weather

Enter ICAO airport designator
Station Type Date Time Source
KCRG METAR 2020/04/09 19:53 UTC NOAA

KCRG 091953Z 25014G22KT 10SM CLR 32/18 A2971 RMK AO2 SLP060 T03220183


Station Type Date Time Source
KCRG Decoded METAR 2020/04/09 19:53 UTC NOAA

JACKSONVILLE CRAIG MUN, FL, United States (KCRG) 30-20N 81-31W 13M
Apr 09, 2020 - 03:53 PM EDT / 2020.04.09 1953 UTC
Wind: from the WSW (250 degrees) at 16 MPH (14 KT) gusting to 25 MPH (22 KT):0
Visibility: 10 mile(s):0
Sky conditions: clear
Temperature: 90.0 F (32.2 C)
Dew Point: 64.9 F (18.3 C)
Relative Humidity: 43%
Pressure (altimeter): 29.71 in. Hg (1006 hPa)
ob: KCRG 091953Z 25014G22KT 10SM CLR 32/18 A2971 RMK AO2 SLP060 T03220183
cycle: 20

Station Type Date Time Source
KCRG TAF 2020/04/09 18:42 UTC NOAA

TAF KCRG 091739Z 0918/1018 26012G20KT P6SM SCT025 BKN035
FM092300 27011G18KT P6SM VCTS SCT025CB OVC045
FM100100 27009KT P6SM SCT050 BKN250
FM100600 27007KT P6SM BKN250

Example: see airport list